sensor_id;sensor_type;location;lat;lon;timestamp;temperature;humidity
5011;DHT22;2524;54.364;10.072;2023-03-29T00:00:06;5.50;99.90
5011;DHT22;2524;54.364;10.072;2023-03-29T00:02:35;5.30;99.90
5011;DHT22;2524;54.364;10.072;2023-03-29T00:05:01;5.50;99.90
5011;DHT22;2524;54.364;10.072;2023-03-29T00:07:28;5.40;99.90
5011;DHT22;2524;54.364;10.072;2023-03-29T00:09:58;5.40;99.90
5011;DHT22;2524;54.364;10.072;2023-03-29T00:12:24;5.30;99.90
5011;DHT22;2524;54.364;10.072;2023-03-29T00:14:49;5.70;99.90
5011;DHT22;2524;54.364;10.072;2023-03-29T00:17:15;5.70;99.90
5011;DHT22;2524;54.364;10.072;2023-03-29T00:19:43;5.60;99.90
5011;DHT22;2524;54.364;10.072;2023-03-29T00:22:09;5.40;99.90
5011;DHT22;2524;54.364;10.072;2023-03-29T00:24:34;5.40;99.90
5011;DHT22;2524;54.364;10.072;2023-03-29T00:27:00;5.40;99.90
5011;DHT22;2524;54.364;10.072;2023-03-29T00:29:26;5.50;99.90
5011;DHT22;2524;54.364;10.072;2023-03-29T00:31:52;5.20;99.90
5011;DHT22;2524;54.364;10.072;2023-03-29T00:34:23;5.20;99.90
5011;DHT22;2524;54.364;10.072;2023-03-29T00:36:49;5.40;99.90
5011;DHT22;2524;54.364;10.072;2023-03-29T00:39:16;5.20;99.90
5011;DHT22;2524;54.364;10.072;2023-03-29T00:41:47;5.20;99.90
5011;DHT22;2524;54.364;10.072;2023-03-29T00:47:21;5.20;99.90
5011;DHT22;2524;54.364;10.072;2023-03-29T00:49:49;5.20;99.90
5011;DHT22;2524;54.364;10.072;2023-03-29T00:52:18;5.10;99.90
5011;DHT22;2524;54.364;10.072;2023-03-29T00:54:48;5.40;99.90
5011;DHT22;2524;54.364;10.072;2023-03-29T00:57:16;5.00;99.90
5011;DHT22;2524;54.364;10.072;2023-03-29T00:59:43;5.00;99.90
5011;DHT22;2524;54.364;10.072;2023-03-29T01:02:11;4.80;99.90
5011;DHT22;2524;54.364;10.072;2023-03-29T01:07:17;5.00;99.90
5011;DHT22;2524;54.364;10.072;2023-03-29T01:10:08;5.00;99.90
5011;DHT22;2524;54.364;10.072;2023-03-29T01:12:39;4.80;99.90
5011;DHT22;2524;54.364;10.072;2023-03-29T01:15:13;4.80;99.90
5011;DHT22;2524;54.364;10.072;2023-03-29T01:17:40;4.70;99.90
5011;DHT22;2524;54.364;10.072;2023-03-29T01:20:26;4.80;99.90
5011;DHT22;2524;54.364;10.072;2023-03-29T01:28:49;4.70;99.90
5011;DHT22;2524;54.364;10.072;2023-03-29T01:31:22;4.90;99.90
5011;DHT22;2524;54.364;10.072;2023-03-29T01:33:54;4.70;99.90
5011;DHT22;2524;54.364;10.072;2023-03-29T01:36:28;4.70;99.90
5011;DHT22;2524;54.364;10.072;2023-03-29T01:39:00;4.60;99.90
5011;DHT22;2524;54.364;10.072;2023-03-29T01:41:38;4.70;99.90
5011;DHT22;2524;54.364;10.072;2023-03-29T01:44:17;4.50;99.90
5011;DHT22;2524;54.364;10.072;2023-03-29T01:46:52;4.60;99.90
5011;DHT22;2524;54.364;10.072;2023-03-29T01:49:26;4.60;99.90
5011;DHT22;2524;54.364;10.072;2023-03-29T01:52:23;4.60;99.90
5011;DHT22;2524;54.364;10.072;2023-03-29T01:54:59;4.50;99.90
5011;DHT22;2524;54.364;10.072;2023-03-29T01:57:27;4.60;99.90
5011;DHT22;2524;54.364;10.072;2023-03-29T01:59:56;4.40;99.90
5011;DHT22;2524;54.364;10.072;2023-03-29T02:02:23;4.60;99.90
5011;DHT22;2524;54.364;10.072;2023-03-29T02:04:52;4.70;99.90
5011;DHT22;2524;54.364;10.072;2023-03-29T02:07:22;4.60;99.90
5011;DHT22;2524;54.364;10.072;2023-03-29T02:09:51;4.60;99.90
5011;DHT22;2524;54.364;10.072;2023-03-29T02:12:18;4.70;99.90
5011;DHT22;2524;54.364;10.072;2023-03-29T02:14:44;4.70;99.90
5011;DHT22;2524;54.364;10.072;2023-03-29T02:17:25;4.60;99.90
5011;DHT22;2524;54.364;10.072;2023-03-29T02:19:57;4.70;99.90
5011;DHT22;2524;54.364;10.072;2023-03-29T02:22:35;4.70;99.90
5011;DHT22;2524;54.364;10.072;2023-03-29T02:25:03;4.60;99.90
5011;DHT22;2524;54.364;10.072;2023-03-29T02:27:38;4.70;99.90
5011;DHT22;2524;54.364;10.072;2023-03-29T02:30:06;4.60;99.90
5011;DHT22;2524;54.364;10.072;2023-03-29T02:35:12;4.70;99.90
5011;DHT22;2524;54.364;10.072;2023-03-29T02:37:40;4.60;99.90
5011;DHT22;2524;54.364;10.072;2023-03-29T02:40:08;4.60;99.90
5011;DHT22;2524;54.364;10.072;2023-03-29T02:42:38;4.50;99.90
5011;DHT22;2524;54.364;10.072;2023-03-29T02:45:04;4.60;99.90
5011;DHT22;2524;54.364;10.072;2023-03-29T02:47:46;4.70;99.90
5011;DHT22;2524;54.364;10.072;2023-03-29T02:50:12;4.70;99.90
5011;DHT22;2524;54.364;10.072;2023-03-29T02:52:42;4.60;99.90
5011;DHT22;2524;54.364;10.072;2023-03-29T02:55:14;4.60;99.90
5011;DHT22;2524;54.364;10.072;2023-03-29T02:57:41;4.50;99.90
5011;DHT22;2524;54.364;10.072;2023-03-29T03:00:09;4.50;99.90
5011;DHT22;2524;54.364;10.072;2023-03-29T03:02:36;4.70;99.90
5011;DHT22;2524;54.364;10.072;2023-03-29T03:05:03;4.50;99.90
5011;DHT22;2524;54.364;10.072;2023-03-29T03:07:30;4.50;99.90
5011;DHT22;2524;54.364;10.072;2023-03-29T03:09:55;4.50;99.90
5011;DHT22;2524;54.364;10.072;2023-03-29T03:12:22;4.50;99.90
5011;DHT22;2524;54.364;10.072;2023-03-29T03:14:47;4.60;99.90
5011;DHT22;2524;54.364;10.072;2023-03-29T03:17:13;4.50;99.90
5011;DHT22;2524;54.364;10.072;2023-03-29T03:19:39;4.40;99.90
5011;DHT22;2524;54.364;10.072;2023-03-29T03:22:04;4.40;99.90
5011;DHT22;2524;54.364;10.072;2023-03-29T03:24:32;4.40;99.90
5011;DHT22;2524;54.364;10.072;2023-03-29T03:26:58;4.50;99.90
5011;DHT22;2524;54.364;10.072;2023-03-29T03:29:24;4.40;99.90
5011;DHT22;2524;54.364;10.072;2023-03-29T03:31:51;4.50;99.90
5011;DHT22;2524;54.364;10.072;2023-03-29T03:34:17;4.60;99.90
5011;DHT22;2524;54.364;10.072;2023-03-29T03:36:44;4.50;99.90
5011;DHT22;2524;54.364;10.072;2023-03-29T03:39:12;4.60;99.90
5011;DHT22;2524;54.364;10.072;2023-03-29T03:41:38;4.50;99.90
5011;DHT22;2524;54.364;10.072;2023-03-29T03:44:04;4.60;99.90
5011;DHT22;2524;54.364;10.072;2023-03-29T03:46:30;4.50;99.90
5011;DHT22;2524;54.364;10.072;2023-03-29T03:48:56;4.40;99.90
5011;DHT22;2524;54.364;10.072;2023-03-29T03:51:22;4.50;99.90
5011;DHT22;2524;54.364;10.072;2023-03-29T03:53:48;4.50;99.90
5011;DHT22;2524;54.364;10.072;2023-03-29T03:56:14;4.40;99.90
5011;DHT22;2524;54.364;10.072;2023-03-29T03:58:40;4.40;99.90
5011;DHT22;2524;54.364;10.072;2023-03-29T04:01:06;4.50;99.90
5011;DHT22;2524;54.364;10.072;2023-03-29T04:03:32;4.50;99.90
5011;DHT22;2524;54.364;10.072;2023-03-29T04:05:59;4.60;99.90
5011;DHT22;2524;54.364;10.072;2023-03-29T04:08:25;4.60;99.90
5011;DHT22;2524;54.364;10.072;2023-03-29T04:10:55;4.50;99.90
5011;DHT22;2524;54.364;10.072;2023-03-29T04:13:22;4.60;99.90
5011;DHT22;2524;54.364;10.072;2023-03-29T04:15:48;4.40;99.90
5011;DHT22;2524;54.364;10.072;2023-03-29T04:18:22;4.50;99.90
5011;DHT22;2524;54.364;10.072;2023-03-29T04:20:48;4.50;99.90
5011;DHT22;2524;54.364;10.072;2023-03-29T04:23:14;4.50;99.90
5011;DHT22;2524;54.364;10.072;2023-03-29T04:25:40;4.60;99.90
5011;DHT22;2524;54.364;10.072;2023-03-29T04:28:06;4.60;99.90
5011;DHT22;2524;54.364;10.072;2023-03-29T04:30:32;4.60;99.90
5011;DHT22;2524;54.364;10.072;2023-03-29T04:32:57;4.50;99.90
5011;DHT22;2524;54.364;10.072;2023-03-29T04:35:23;4.50;99.90
5011;DHT22;2524;54.364;10.072;2023-03-29T04:37:52;4.60;99.90
5011;DHT22;2524;54.364;10.072;2023-03-29T04:40:19;4.60;99.90
5011;DHT22;2524;54.364;10.072;2023-03-29T04:42:46;4.50;99.90
5011;DHT22;2524;54.364;10.072;2023-03-29T04:45:12;4.50;99.90
5011;DHT22;2524;54.364;10.072;2023-03-29T04:47:39;4.50;99.90
5011;DHT22;2524;54.364;10.072;2023-03-29T04:50:05;4.50;99.90
5011;DHT22;2524;54.364;10.072;2023-03-29T04:52:33;4.50;99.90
5011;DHT22;2524;54.364;10.072;2023-03-29T04:55:02;4.60;99.90
5011;DHT22;2524;54.364;10.072;2023-03-29T04:57:28;4.50;99.90
5011;DHT22;2524;54.364;10.072;2023-03-29T04:59:54;4.50;99.90
5011;DHT22;2524;54.364;10.072;2023-03-29T05:02:19;4.50;99.90
5011;DHT22;2524;54.364;10.072;2023-03-29T05:04:46;4.40;99.90
5011;DHT22;2524;54.364;10.072;2023-03-29T05:07:11;4.40;99.90
5011;DHT22;2524;54.364;10.072;2023-03-29T05:09:37;4.50;99.90
5011;DHT22;2524;54.364;10.072;2023-03-29T05:12:03;4.50;99.90
5011;DHT22;2524;54.364;10.072;2023-03-29T05:14:29;4.50;99.90
5011;DHT22;2524;54.364;10.072;2023-03-29T05:17:00;4.50;99.90
5011;DHT22;2524;54.364;10.072;2023-03-29T05:19:26;4.40;99.90
5011;DHT22;2524;54.364;10.072;2023-03-29T05:21:52;4.40;99.90
5011;DHT22;2524;54.364;10.072;2023-03-29T05:24:18;4.50;99.90
5011;DHT22;2524;54.364;10.072;2023-03-29T05:26:44;4.50;99.90
5011;DHT22;2524;54.364;10.072;2023-03-29T05:29:12;4.40;99.90
5011;DHT22;2524;54.364;10.072;2023-03-29T05:31:38;4.40;99.90
5011;DHT22;2524;54.364;10.072;2023-03-29T05:34:04;4.60;99.90
5011;DHT22;2524;54.364;10.072;2023-03-29T05:36:30;4.50;99.90
5011;DHT22;2524;54.364;10.072;2023-03-29T05:38:56;4.40;99.90
5011;DHT22;2524;54.364;10.072;2023-03-29T05:41:22;4.50;99.90
5011;DHT22;2524;54.364;10.072;2023-03-29T05:43:49;4.40;99.90
5011;DHT22;2524;54.364;10.072;2023-03-29T05:46:15;4.50;99.90
5011;DHT22;2524;54.364;10.072;2023-03-29T05:48:41;4.60;99.90
5011;DHT22;2524;54.364;10.072;2023-03-29T05:51:06;4.50;99.90
5011;DHT22;2524;54.364;10.072;2023-03-29T05:53:32;4.60;99.90
5011;DHT22;2524;54.364;10.072;2023-03-29T05:56:02;4.50;99.90
5011;DHT22;2524;54.364;10.072;2023-03-29T05:58:28;4.60;99.90
5011;DHT22;2524;54.364;10.072;2023-03-29T06:00:55;4.60;99.90
5011;DHT22;2524;54.364;10.072;2023-03-29T06:03:22;4.60;99.90
5011;DHT22;2524;54.364;10.072;2023-03-29T06:05:59;4.50;99.90
5011;DHT22;2524;54.364;10.072;2023-03-29T06:08:26;4.60;99.90
5011;DHT22;2524;54.364;10.072;2023-03-29T06:11:00;4.50;99.90
5011;DHT22;2524;54.364;10.072;2023-03-29T06:13:27;4.50;99.90
5011;DHT22;2524;54.364;10.072;2023-03-29T06:15:53;4.70;99.90
5011;DHT22;2524;54.364;10.072;2023-03-29T06:18:19;4.60;99.90
5011;DHT22;2524;54.364;10.072;2023-03-29T06:20:52;4.80;99.90
5011;DHT22;2524;54.364;10.072;2023-03-29T06:23:22;4.60;99.90
5011;DHT22;2524;54.364;10.072;2023-03-29T06:25:48;4.60;99.90
5011;DHT22;2524;54.364;10.072;2023-03-29T06:28:16;4.60;99.90
5011;DHT22;2524;54.364;10.072;2023-03-29T06:30:42;4.70;99.90
5011;DHT22;2524;54.364;10.072;2023-03-29T06:33:08;4.70;99.90
5011;DHT22;2524;54.364;10.072;2023-03-29T06:35:35;4.80;99.90
5011;DHT22;2524;54.364;10.072;2023-03-29T06:38:01;4.80;99.90
5011;DHT22;2524;54.364;10.072;2023-03-29T06:40:28;4.80;99.90
5011;DHT22;2524;54.364;10.072;2023-03-29T06:42:54;4.70;99.90
5011;DHT22;2524;54.364;10.072;2023-03-29T06:45:24;4.70;99.90
5011;DHT22;2524;54.364;10.072;2023-03-29T06:47:50;4.80;99.90
5011;DHT22;2524;54.364;10.072;2023-03-29T06:50:16;4.90;99.90
5011;DHT22;2524;54.364;10.072;2023-03-29T06:52:43;4.80;99.90
5011;DHT22;2524;54.364;10.072;2023-03-29T06:55:09;4.70;99.90
5011;DHT22;2524;54.364;10.072;2023-03-29T06:57:36;4.70;99.90
5011;DHT22;2524;54.364;10.072;2023-03-29T07:00:03;4.90;99.90
5011;DHT22;2524;54.364;10.072;2023-03-29T07:02:40;4.90;99.90
5011;DHT22;2524;54.364;10.072;2023-03-29T07:05:10;4.90;99.90
5011;DHT22;2524;54.364;10.072;2023-03-29T07:07:41;4.80;99.90
5011;DHT22;2524;54.364;10.072;2023-03-29T07:10:37;4.90;99.90
5011;DHT22;2524;54.364;10.072;2023-03-29T07:13:05;5.00;99.90
5011;DHT22;2524;54.364;10.072;2023-03-29T07:15:32;5.00;99.90
5011;DHT22;2524;54.364;10.072;2023-03-29T07:17:58;5.00;99.90
5011;DHT22;2524;54.364;10.072;2023-03-29T07:20:24;5.00;99.90
5011;DHT22;2524;54.364;10.072;2023-03-29T07:22:51;5.10;99.90
5011;DHT22;2524;54.364;10.072;2023-03-29T07:25:20;5.10;99.90
5011;DHT22;2524;54.364;10.072;2023-03-29T07:27:45;5.10;99.90
5011;DHT22;2524;54.364;10.072;2023-03-29T07:30:15;5.20;99.90
5011;DHT22;2524;54.364;10.072;2023-03-29T07:32:42;5.20;99.90
5011;DHT22;2524;54.364;10.072;2023-03-29T07:35:09;5.20;99.90
5011;DHT22;2524;54.364;10.072;2023-03-29T07:37:36;5.30;99.90
5011;DHT22;2524;54.364;10.072;2023-03-29T07:40:05;5.30;99.90
5011;DHT22;2524;54.364;10.072;2023-03-29T07:42:52;5.20;99.90
5011;DHT22;2524;54.364;10.072;2023-03-29T07:45:21;5.20;99.90
5011;DHT22;2524;54.364;10.072;2023-03-29T07:47:48;5.30;99.90
5011;DHT22;2524;54.364;10.072;2023-03-29T07:50:15;5.40;99.90
5011;DHT22;2524;54.364;10.072;2023-03-29T07:52:41;5.40;99.90
5011;DHT22;2524;54.364;10.072;2023-03-29T07:55:09;5.40;99.90
5011;DHT22;2524;54.364;10.072;2023-03-29T07:57:35;5.40;99.90
5011;DHT22;2524;54.364;10.072;2023-03-29T08:00:01;5.30;99.90
5011;DHT22;2524;54.364;10.072;2023-03-29T08:02:40;5.50;99.90
5011;DHT22;2524;54.364;10.072;2023-03-29T08:05:05;5.40;99.90
5011;DHT22;2524;54.364;10.072;2023-03-29T08:07:31;5.40;99.90
5011;DHT22;2524;54.364;10.072;2023-03-29T08:09:57;5.50;99.90
5011;DHT22;2524;54.364;10.072;2023-03-29T08:12:22;5.50;99.90
5011;DHT22;2524;54.364;10.072;2023-03-29T08:14:48;5.70;99.90
5011;DHT22;2524;54.364;10.072;2023-03-29T08:17:13;5.60;99.90
5011;DHT22;2524;54.364;10.072;2023-03-29T08:19:40;5.50;99.90
5011;DHT22;2524;54.364;10.072;2023-03-29T08:22:06;5.60;99.90
5011;DHT22;2524;54.364;10.072;2023-03-29T08:24:31;5.70;99.90
5011;DHT22;2524;54.364;10.072;2023-03-29T08:26:57;5.80;99.90
5011;DHT22;2524;54.364;10.072;2023-03-29T08:29:24;5.80;99.90
5011;DHT22;2524;54.364;10.072;2023-03-29T08:31:51;5.80;99.90
5011;DHT22;2524;54.364;10.072;2023-03-29T08:34:17;6.00;99.90
5011;DHT22;2524;54.364;10.072;2023-03-29T08:36:42;5.90;99.90
5011;DHT22;2524;54.364;10.072;2023-03-29T08:39:08;5.90;99.90
5011;DHT22;2524;54.364;10.072;2023-03-29T08:47:12;6.00;99.90
5011;DHT22;2524;54.364;10.072;2023-03-29T08:49:42;6.00;99.90
5011;DHT22;2524;54.364;10.072;2023-03-29T08:52:19;6.00;99.90
5011;DHT22;2524;54.364;10.072;2023-03-29T08:54:49;6.00;99.90
5011;DHT22;2524;54.364;10.072;2023-03-29T08:57:26;6.20;99.90
5011;DHT22;2524;54.364;10.072;2023-03-29T08:59:55;6.30;99.90
5011;DHT22;2524;54.364;10.072;2023-03-29T09:02:29;6.20;99.90
5011;DHT22;2524;54.364;10.072;2023-03-29T09:05:13;6.10;99.90
5011;DHT22;2524;54.364;10.072;2023-03-29T09:07:42;6.20;99.90
5011;DHT22;2524;54.364;10.072;2023-03-29T09:10:15;6.20;99.90
5011;DHT22;2524;54.364;10.072;2023-03-29T09:15:28;6.20;99.90
5011;DHT22;2524;54.364;10.072;2023-03-29T09:18:20;6.30;99.90
5011;DHT22;2524;54.364;10.072;2023-03-29T09:20:59;6.30;99.90
5011;DHT22;2524;54.364;10.072;2023-03-29T09:26:44;6.20;99.90
5011;DHT22;2524;54.364;10.072;2023-03-29T09:29:38;6.30;99.90
5011;DHT22;2524;54.364;10.072;2023-03-29T09:32:14;6.30;99.90
5011;DHT22;2524;54.364;10.072;2023-03-29T09:34:52;6.20;99.90
5011;DHT22;2524;54.364;10.072;2023-03-29T09:37:33;6.30;99.90
5011;DHT22;2524;54.364;10.072;2023-03-29T09:40:05;6.20;99.90
5011;DHT22;2524;54.364;10.072;2023-03-29T09:42:35;6.30;99.90
5011;DHT22;2524;54.364;10.072;2023-03-29T09:45:04;6.30;99.90
5011;DHT22;2524;54.364;10.072;2023-03-29T09:47:55;6.30;99.90
5011;DHT22;2524;54.364;10.072;2023-03-29T09:52:51;6.20;99.90
5011;DHT22;2524;54.364;10.072;2023-03-29T09:55:26;6.30;99.90
5011;DHT22;2524;54.364;10.072;2023-03-29T09:57:52;6.20;99.90
5011;DHT22;2524;54.364;10.072;2023-03-29T10:00:20;6.30;99.90
5011;DHT22;2524;54.364;10.072;2023-03-29T10:02:55;6.30;99.90
5011;DHT22;2524;54.364;10.072;2023-03-29T10:05:24;6.20;99.90
5011;DHT22;2524;54.364;10.072;2023-03-29T10:07:51;6.20;99.90
5011;DHT22;2524;54.364;10.072;2023-03-29T10:10:21;6.30;99.90
5011;DHT22;2524;54.364;10.072;2023-03-29T10:12:49;6.30;99.90
5011;DHT22;2524;54.364;10.072;2023-03-29T10:15:17;6.30;99.90
5011;DHT22;2524;54.364;10.072;2023-03-29T10:17:43;6.30;99.90
5011;DHT22;2524;54.364;10.072;2023-03-29T10:20:17;6.40;99.90
5011;DHT22;2524;54.364;10.072;2023-03-29T10:22:48;6.30;99.90
5011;DHT22;2524;54.364;10.072;2023-03-29T10:25:16;6.40;99.90
5011;DHT22;2524;54.364;10.072;2023-03-29T10:27:44;6.50;99.90
5011;DHT22;2524;54.364;10.072;2023-03-29T10:30:22;6.50;99.90
5011;DHT22;2524;54.364;10.072;2023-03-29T10:32:55;6.60;99.90
5011;DHT22;2524;54.364;10.072;2023-03-29T10:35:23;6.50;99.90
5011;DHT22;2524;54.364;10.072;2023-03-29T10:37:50;6.50;99.90
5011;DHT22;2524;54.364;10.072;2023-03-29T10:40:26;6.60;99.90
5011;DHT22;2524;54.364;10.072;2023-03-29T10:42:53;6.60;99.90
5011;DHT22;2524;54.364;10.072;2023-03-29T10:45:32;6.70;99.90
5011;DHT22;2524;54.364;10.072;2023-03-29T10:47:59;6.60;99.90
5011;DHT22;2524;54.364;10.072;2023-03-29T10:50:31;6.70;99.90
5011;DHT22;2524;54.364;10.072;2023-03-29T10:52:59;6.70;99.90
5011;DHT22;2524;54.364;10.072;2023-03-29T10:55:32;6.70;99.90
5011;DHT22;2524;54.364;10.072;2023-03-29T10:58:17;6.70;99.90
5011;DHT22;2524;54.364;10.072;2023-03-29T11:00:52;6.60;99.90
5011;DHT22;2524;54.364;10.072;2023-03-29T11:03:42;6.70;99.90
5011;DHT22;2524;54.364;10.072;2023-03-29T11:06:35;6.80;99.90
5011;DHT22;2524;54.364;10.072;2023-03-29T11:12:46;6.80;99.90
5011;DHT22;2524;54.364;10.072;2023-03-29T11:18:03;6.70;99.90
5011;DHT22;2524;54.364;10.072;2023-03-29T11:28:56;6.80;99.90
5011;DHT22;2524;54.364;10.072;2023-03-29T11:37:21;6.90;99.90
5011;DHT22;2524;54.364;10.072;2023-03-29T11:42:30;7.10;99.90
5011;DHT22;2524;54.364;10.072;2023-03-29T11:44:59;7.10;99.90
5011;DHT22;2524;54.364;10.072;2023-03-29T11:47:33;7.10;99.90
5011;DHT22;2524;54.364;10.072;2023-03-29T11:50:16;7.10;99.90
5011;DHT22;2524;54.364;10.072;2023-03-29T11:53:06;7.10;99.90
5011;DHT22;2524;54.364;10.072;2023-03-29T11:55:36;7.20;99.90
5011;DHT22;2524;54.364;10.072;2023-03-29T11:58:16;7.10;99.90
5011;DHT22;2524;54.364;10.072;2023-03-29T12:00:57;7.20;99.90
5011;DHT22;2524;54.364;10.072;2023-03-29T12:03:45;7.10;99.90
5011;DHT22;2524;54.364;10.072;2023-03-29T12:08:53;7.20;99.90
5011;DHT22;2524;54.364;10.072;2023-03-29T12:14:27;7.20;99.90
5011;DHT22;2524;54.364;10.072;2023-03-29T12:17:00;7.40;99.90
5011;DHT22;2524;54.364;10.072;2023-03-29T12:19:35;7.30;99.90
5011;DHT22;2524;54.364;10.072;2023-03-29T12:22:02;7.30;99.90
5011;DHT22;2524;54.364;10.072;2023-03-29T12:24:34;7.40;99.90
5011;DHT22;2524;54.364;10.072;2023-03-29T12:27:22;7.50;99.90
5011;DHT22;2524;54.364;10.072;2023-03-29T12:32:50;7.50;99.90
5011;DHT22;2524;54.364;10.072;2023-03-29T12:38:27;7.60;99.90
5011;DHT22;2524;54.364;10.072;2023-03-29T12:40:56;7.70;99.90
5011;DHT22;2524;54.364;10.072;2023-03-29T12:43:29;7.70;99.90
5011;DHT22;2524;54.364;10.072;2023-03-29T12:46:03;7.80;99.90
5011;DHT22;2524;54.364;10.072;2023-03-29T12:48:30;7.70;99.90
5011;DHT22;2524;54.364;10.072;2023-03-29T12:51:01;7.80;99.90
5011;DHT22;2524;54.364;10.072;2023-03-29T12:53:33;7.80;99.90
5011;DHT22;2524;54.364;10.072;2023-03-29T13:01:07;7.90;99.90
5011;DHT22;2524;54.364;10.072;2023-03-29T13:03:46;7.90;99.90
5011;DHT22;2524;54.364;10.072;2023-03-29T13:06:27;7.90;99.90
5011;DHT22;2524;54.364;10.072;2023-03-29T13:09:17;7.90;99.90
5011;DHT22;2524;54.364;10.072;2023-03-29T13:12:18;8.00;99.90
5011;DHT22;2524;54.364;10.072;2023-03-29T13:14:42;7.90;99.90
5011;DHT22;2524;54.364;10.072;2023-03-29T13:17:18;7.90;99.90
5011;DHT22;2524;54.364;10.072;2023-03-29T13:22:24;7.90;99.90
5011;DHT22;2524;54.364;10.072;2023-03-29T13:25:18;7.90;99.90
5011;DHT22;2524;54.364;10.072;2023-03-29T13:27:50;8.00;99.90
5011;DHT22;2524;54.364;10.072;2023-03-29T13:30:23;8.00;99.90
5011;DHT22;2524;54.364;10.072;2023-03-29T13:35:50;8.00;99.90
5011;DHT22;2524;54.364;10.072;2023-03-29T13:38:24;8.00;99.90
5011;DHT22;2524;54.364;10.072;2023-03-29T13:46:14;8.10;99.90
5011;DHT22;2524;54.364;10.072;2023-03-29T13:51:03;8.20;99.90
5011;DHT22;2524;54.364;10.072;2023-03-29T13:53:50;7.90;99.90
5011;DHT22;2524;54.364;10.072;2023-03-29T13:56:35;8.10;99.90
5011;DHT22;2524;54.364;10.072;2023-03-29T13:59:28;8.00;99.90
5011;DHT22;2524;54.364;10.072;2023-03-29T14:01:56;8.30;99.90
5011;DHT22;2524;54.364;10.072;2023-03-29T14:07:21;8.20;99.90
5011;DHT22;2524;54.364;10.072;2023-03-29T14:09:51;8.30;99.90
5011;DHT22;2524;54.364;10.072;2023-03-29T14:12:17;8.10;99.90
5011;DHT22;2524;54.364;10.072;2023-03-29T14:14:45;8.30;99.90
5011;DHT22;2524;54.364;10.072;2023-03-29T14:17:18;8.30;99.90
5011;DHT22;2524;54.364;10.072;2023-03-29T14:19:44;8.50;99.90
5011;DHT22;2524;54.364;10.072;2023-03-29T14:22:17;8.50;99.90
5011;DHT22;2524;54.364;10.072;2023-03-29T14:24:51;8.30;99.90
5011;DHT22;2524;54.364;10.072;2023-03-29T14:27:18;8.60;99.90
5011;DHT22;2524;54.364;10.072;2023-03-29T14:29:45;8.40;99.90
5011;DHT22;2524;54.364;10.072;2023-03-29T14:32:17;8.70;99.90
5011;DHT22;2524;54.364;10.072;2023-03-29T14:34:46;8.70;99.90
5011;DHT22;2524;54.364;10.072;2023-03-29T14:37:16;8.50;99.90
5011;DHT22;2524;54.364;10.072;2023-03-29T14:39:43;8.60;99.90
5011;DHT22;2524;54.364;10.072;2023-03-29T14:42:16;8.70;99.90
5011;DHT22;2524;54.364;10.072;2023-03-29T14:44:45;8.70;99.90
5011;DHT22;2524;54.364;10.072;2023-03-29T14:47:28;8.70;99.90
5011;DHT22;2524;54.364;10.072;2023-03-29T14:49:55;8.80;99.90
5011;DHT22;2524;54.364;10.072;2023-03-29T14:52:25;8.90;99.90
5011;DHT22;2524;54.364;10.072;2023-03-29T14:54:53;8.70;99.90
5011;DHT22;2524;54.364;10.072;2023-03-29T14:57:23;8.90;99.90
5011;DHT22;2524;54.364;10.072;2023-03-29T14:59:54;8.90;99.90
5011;DHT22;2524;54.364;10.072;2023-03-29T15:02:29;8.70;99.90
5011;DHT22;2524;54.364;10.072;2023-03-29T15:04:57;8.70;99.90
5011;DHT22;2524;54.364;10.072;2023-03-29T15:07:25;8.80;99.90
5011;DHT22;2524;54.364;10.072;2023-03-29T15:09:51;8.80;99.90
5011;DHT22;2524;54.364;10.072;2023-03-29T15:12:18;8.90;99.90
5011;DHT22;2524;54.364;10.072;2023-03-29T15:14:44;8.70;99.90
5011;DHT22;2524;54.364;10.072;2023-03-29T15:17:31;8.70;99.90
5011;DHT22;2524;54.364;10.072;2023-03-29T15:19:59;8.60;99.90
5011;DHT22;2524;54.364;10.072;2023-03-29T15:22:34;8.60;99.90
5011;DHT22;2524;54.364;10.072;2023-03-29T15:24:59;8.90;99.90
5011;DHT22;2524;54.364;10.072;2023-03-29T15:27:26;8.60;99.90
5011;DHT22;2524;54.364;10.072;2023-03-29T15:29:58;8.60;99.90
5011;DHT22;2524;54.364;10.072;2023-03-29T15:32:32;8.50;99.90
5011;DHT22;2524;54.364;10.072;2023-03-29T15:35:01;8.80;99.90
5011;DHT22;2524;54.364;10.072;2023-03-29T15:37:27;8.90;99.90
5011;DHT22;2524;54.364;10.072;2023-03-29T15:39:53;8.80;99.90
5011;DHT22;2524;54.364;10.072;2023-03-29T15:42:20;8.60;99.90
5011;DHT22;2524;54.364;10.072;2023-03-29T15:44:46;8.80;99.90
5011;DHT22;2524;54.364;10.072;2023-03-29T15:47:12;8.60;99.90
5011;DHT22;2524;54.364;10.072;2023-03-29T15:49:38;8.60;99.90
5011;DHT22;2524;54.364;10.072;2023-03-29T15:52:03;8.70;99.90
5011;DHT22;2524;54.364;10.072;2023-03-29T15:54:29;8.90;99.90
5011;DHT22;2524;54.364;10.072;2023-03-29T15:57:04;8.60;99.90
5011;DHT22;2524;54.364;10.072;2023-03-29T15:59:30;8.50;99.90
5011;DHT22;2524;54.364;10.072;2023-03-29T16:01:56;8.80;99.90
5011;DHT22;2524;54.364;10.072;2023-03-29T16:04:23;8.70;99.90
5011;DHT22;2524;54.364;10.072;2023-03-29T16:06:51;8.80;99.90
5011;DHT22;2524;54.364;10.072;2023-03-29T16:09:18;8.80;99.90
5011;DHT22;2524;54.364;10.072;2023-03-29T16:11:45;8.70;99.90
5011;DHT22;2524;54.364;10.072;2023-03-29T16:14:20;8.90;99.90
5011;DHT22;2524;54.364;10.072;2023-03-29T16:16:47;8.70;99.90
5011;DHT22;2524;54.364;10.072;2023-03-29T16:19:13;8.60;99.90
5011;DHT22;2524;54.364;10.072;2023-03-29T16:21:39;8.90;99.90
5011;DHT22;2524;54.364;10.072;2023-03-29T16:24:05;8.70;99.90
5011;DHT22;2524;54.364;10.072;2023-03-29T16:26:31;8.60;99.90
5011;DHT22;2524;54.364;10.072;2023-03-29T16:28:57;8.60;99.90
5011;DHT22;2524;54.364;10.072;2023-03-29T16:31:23;8.70;99.90
5011;DHT22;2524;54.364;10.072;2023-03-29T16:33:51;8.80;99.90
5011;DHT22;2524;54.364;10.072;2023-03-29T16:36:17;8.80;99.90
5011;DHT22;2524;54.364;10.072;2023-03-29T16:38:42;8.50;99.90
5011;DHT22;2524;54.364;10.072;2023-03-29T16:41:15;8.50;99.90
5011;DHT22;2524;54.364;10.072;2023-03-29T16:43:41;8.80;99.90
5011;DHT22;2524;54.364;10.072;2023-03-29T16:46:10;8.60;99.90
5011;DHT22;2524;54.364;10.072;2023-03-29T16:48:37;8.80;99.90
5011;DHT22;2524;54.364;10.072;2023-03-29T16:51:02;8.80;99.90
5011;DHT22;2524;54.364;10.072;2023-03-29T16:53:28;8.80;99.90
5011;DHT22;2524;54.364;10.072;2023-03-29T16:55:55;8.60;99.90
5011;DHT22;2524;54.364;10.072;2023-03-29T16:58:21;8.80;99.90
5011;DHT22;2524;54.364;10.072;2023-03-29T17:00:48;8.60;99.90
5011;DHT22;2524;54.364;10.072;2023-03-29T17:03:14;8.50;99.90
5011;DHT22;2524;54.364;10.072;2023-03-29T17:05:48;8.50;99.90
5011;DHT22;2524;54.364;10.072;2023-03-29T17:08:15;8.40;99.90
5011;DHT22;2524;54.364;10.072;2023-03-29T17:10:42;8.50;99.90
5011;DHT22;2524;54.364;10.072;2023-03-29T17:13:08;8.70;99.90
5011;DHT22;2524;54.364;10.072;2023-03-29T17:15:34;8.40;99.90
5011;DHT22;2524;54.364;10.072;2023-03-29T17:18:01;8.50;99.90
5011;DHT22;2524;54.364;10.072;2023-03-29T17:20:26;8.60;99.90
5011;DHT22;2524;54.364;10.072;2023-03-29T17:22:53;8.50;99.90
5011;DHT22;2524;54.364;10.072;2023-03-29T17:25:21;8.70;99.90
5011;DHT22;2524;54.364;10.072;2023-03-29T17:27:47;8.80;99.90
5011;DHT22;2524;54.364;10.072;2023-03-29T17:30:13;8.60;99.90
5011;DHT22;2524;54.364;10.072;2023-03-29T17:32:39;8.60;99.90
5011;DHT22;2524;54.364;10.072;2023-03-29T17:35:06;8.60;99.90
5011;DHT22;2524;54.364;10.072;2023-03-29T17:37:33;8.40;99.90
5011;DHT22;2524;54.364;10.072;2023-03-29T17:39:58;8.70;99.90
5011;DHT22;2524;54.364;10.072;2023-03-29T17:42:24;8.40;99.90